Latest Weather Observations for Bendigo

IDV60801

Issued at 3:35 pm EST Friday 22 August 2014 (issued every 30 minutes, with the page automatically refreshed every 10 minutes)

About weather observations | Map of weather stations | Latest weather observations for VIC | Other Formats
Station Details ID: 081123 Name: BENDIGO AIRPORT Lat: -36.74 Lon: 144.33 Height: 208.0 m
Data from the previous 72 hours. | See also: Recent months at Bendigo
Date/Time
EST
Temp
°C
App
Temp
°C
Dew
Point
Rel
Hum
%
Delta-T
°C
Wind Press
QNH
hPa
Press
MSL
hPa
Rain
since 9 am
mm
Dir
 
Spd
km/h
Gust
km/h
Spd
kts
Gust
kts
22/03:30pm 16.7 12.5 5.6 48 5.4 ENE 17 28 9 15 1027.5 1027.9 0.0
22/03:00pm 16.7 12.9 7.4 54 4.7 ENE 17 24 9 13 1027.7 1028.1 0.0
22/02:30pm 16.5 11.4 5.8 49 5.2 NE 22 28 12 15 1027.9 1028.3 0.0
22/02:00pm 16.6 12.3 7.0 53 4.8 NE 19 26 10 14 1028.3 1028.7 0.0
22/01:30pm 16.3 11.8 5.9 50 5.1 NE 19 26 10 14 1028.7 1029.1 0.0
22/01:00pm 16.1 13.1 7.8 58 4.2 NNE 13 20 7 11 1029.1 1029.5 0.0
22/12:30pm 15.7 11.9 7.5 58 4.1 NNE 17 22 9 12 1029.8 1030.2 0.0
22/12:00pm 15.5 12.0 7.3 58 4.1 NNE 15 20 8 11 1030.1 1030.5 0.0
22/11:30am 14.8 10.6 8.1 64 3.4 NE 20 28 11 15 1030.5 1031.0 0.0
22/11:00am 14.2 9.4 7.3 63 3.4 NE 22 33 12 18 1030.9 1031.4 0.0
22/10:30am 14.0 9.3 6.1 59 3.8 NE 20 33 11 18 1031.1 1031.6 0.0
22/10:00am 13.0 10.6 7.2 68 2.8 ESE 9 11 5 6 1031.2 1031.7 0.0
22/09:30am 11.6 9.1 6.5 71 2.4 ESE 9 13 5 7 1031.4 1031.9 0.0
22/09:00am 10.2 7.8 6.9 80 1.6 SSE 9 13 5 7 1031.4 1031.9 0.0
22/08:30am 9.0 6.5 6.6 85 1.1 SE 9 13 5 7 1031.3 1031.8 0.0
22/08:00am 5.9 3.8 5.8 99 0.0 SSE 6 11 3 6 1031.0 1031.5 0.0
22/07:30am 2.8 1.2 2.7 99 0.0 CALM 0 6 0 3 1030.8 1031.3 0.0
22/07:00am 2.0 0.3 1.9 99 0.0 CALM 0 6 0 3 1030.5 1031.0 0.0
22/06:30am 2.3 0.7 2.2 99 0.0 CALM 0 0 0 0 1030.3 1030.8 0.0
22/06:00am 3.1 1.6 3.0 99 0.0 N 0 0 0 0 1030.0 1030.4 0.0
22/05:30am 2.4 0.7 2.1 98 0.1 CALM 0 0 0 0 1029.7 1030.1 0.0
22/05:00am 3.0 1.4 2.7 98 0.1 CALM 0 0 0 0 1029.5 1029.9 0.0
22/04:30am 3.9 2.5 3.3 96 0.2 CALM 0 0 0 0 1029.3 1029.7 0.0
22/04:00am 5.9 4.1 5.2 95 0.3 SSE 4 11 2 6 1029.1 1029.5 0.0
22/03:30am 5.4 2.1 4.8 96 0.3 SSE 11 13 6 7 1029.1 1029.5 0.0
22/03:00am 6.2 3.6 5.9 98 0.1 SE 9 11 5 6 1029.1 1029.5 0.0
22/02:30am 5.0 3.1 4.7 98 0.1 S 4 7 2 4 1029.2 1029.6 0.0
22/02:00am 4.5 2.0 3.9 96 0.3 S 6 7 3 4 1029.4 1029.8 0.0
22/01:30am 4.7 2.1 4.3 97 0.2 SSE 7 13 4 7 1029.4 1029.8 0.0
22/01:00am 4.9 2.0 4.5 97 0.2 S 9 13 5 7 1029.2 1029.6 0.0
22/12:30am 4.4 1.9 3.8 96 0.3 SE 6 11 3 6 1029.1 1029.5 0.0
22/12:00am 4.2 1.7 3.6 96 0.2 SSE 6 11 3 6 1029.1 1029.5 0.0
 
Date/Time
EST
Temp
°C
App
Temp
°C
Dew
Point
Rel
Hum
%
Delta-T
°C
Wind Press
QNH
hPa
Press
MSL
hPa
Rain
since 9 am
mm
Dir
 
Spd
km/h
Gust
km/h
Spd
kts
Gust
kts
21/11:30pm 4.3 1.7 3.4 94 0.4 S 6 7 3 4 1029.1 1029.5 0.0
21/11:00pm 4.2 2.4 3.3 94 0.4 S 2 9 1 5 1029.2 1029.6 0.0
21/10:30pm 5.3 2.8 4.7 96 0.3 SSE 7 9 4 5 1029.2 1029.6 0.0
21/10:00pm 4.5 2.7 3.5 93 0.4 S 2 9 1 5 1029.3 1029.7 0.0
21/09:30pm 4.9 3.5 3.6 91 0.5 CALM 0 0 0 0 1029.3 1029.7 0.0
21/09:00pm 5.7 4.5 4.5 92 0.5 CALM 0 0 0 0 1029.2 1029.6 0.0
21/08:30pm 5.8 4.6 4.4 91 0.6 CALM 0 0 0 0 1029.0 1029.4 0.0
21/08:00pm 6.3 5.1 4.6 89 0.7 CALM 0 0 0 0 1028.7 1029.1 0.0
21/07:30pm 6.8 5.6 4.6 86 1.0 CALM 0 0 0 0 1028.4 1028.8 0.0
21/07:00pm 7.8 6.7 5.3 84 1.1 CALM 0 0 0 0 1028.2 1028.6 0.0
21/06:30pm 8.5 7.5 5.4 81 1.4 CALM 0 0 0 0 1027.8 1028.2 0.0
21/06:00pm 10.7 9.8 5.9 72 2.2 CALM 0 0 0 0 1027.7 1028.1 0.0
21/05:30pm 14.0 12.4 6.4 60 3.7 N 4 7 2 4 1027.4 1027.8 0.0
21/05:00pm 14.9 11.9 6.0 55 4.3 N 11 15 6 8 1027.0 1027.4 0.0
21/04:30pm 15.1 12.6 6.4 56 4.3 N 9 13 5 7 1026.6 1027.1 0.0
21/04:00pm 15.2 11.8 5.7 53 4.6 N 13 17 7 9 1026.6 1027.1 0.0
21/03:30pm 14.8 11.1 6.4 57 4.1 N 15 20 8 11 1026.6 1027.1 0.0
21/03:00pm 15.4 11.2 7.4 59 4.0 NE 19 28 10 15 1026.5 1027.0 0.0
21/02:30pm 14.3 11.2 7.1 62 3.6 NE 13 20 7 11 1026.5 1027.0 0.0
21/02:00pm 15.2 11.6 8.4 64 3.4 NE 17 28 9 15 1026.6 1027.1 0.0
21/01:30pm 14.5 11.8 7.3 62 3.6 NNE 11 24 6 13 1027.1 1027.5 0.0
21/01:00pm 14.4 12.0 8.6 68 2.9 NNE 11 19 6 10 1027.3 1027.7 0.0
21/12:30pm 14.3 11.1 8.5 68 2.9 N 15 20 8 11 1027.7 1028.1 0.0
21/12:00pm 12.3 9.7 7.6 73 2.3 NE 11 22 6 12 1028.1 1028.5 0.0
21/11:30am 12.5 9.1 7.8 73 2.3 NNE 15 20 8 11 1028.4 1028.8 0.0
21/11:00am 12.6 10.0 7.9 73 2.3 ENE 11 19 6 10 1028.4 1028.8 0.0
21/10:30am 11.5 8.8 7.2 75 2.1 ENE 11 20 6 11 1028.5 1028.9 0.0
21/10:00am 10.8 8.0 7.1 78 1.8 ENE 11 17 6 9 1028.6 1029.0 0.0
21/09:30am 9.9 6.6 6.4 79 1.6 ENE 13 19 7 10 1028.5 1028.9 0.0
21/09:00am 10.2 7.7 6.7 79 1.7 ESE 9 15 5 8 1028.6 1029.0 0.0
21/08:30am 8.6 6.4 5.5 81 1.4 ESE 6 9 3 5 1028.3 1028.7 0.0
21/08:00am 7.4 4.6 5.0 85 1.1 SE 9 15 5 8 1028.0 1028.4 0.0
21/07:30am 6.5 3.6 4.5 87 0.9 SSE 9 13 5 7 1027.7 1028.1 0.0
21/07:00am 6.6 3.3 4.4 86 1.0 SSE 11 13 6 7 1027.4 1027.8 0.0
21/06:30am 6.4 2.7 4.4 87 0.9 SSE 13 17 7 9 1027.1 1027.5 0.0
21/06:00am 6.2 2.4 4.0 86 0.9 SSE 13 17 7 9 1026.7 1027.2 0.0
21/05:30am 5.6 2.1 3.6 87 0.8 SSE 11 15 6 8 1026.7 1027.2 0.0
21/05:00am 6.3 2.1 4.0 85 1.0 SSE 15 17 8 9 1026.6 1027.1 0.0
21/04:30am 6.4 2.6 3.9 84 1.1 SSE 13 17 7 9 1026.6 1027.1 0.0
21/04:00am 6.5 2.3 4.0 84 1.1 SSE 15 19 8 10 1026.4 1026.9 0.0
21/03:30am 6.7 2.6 4.4 85 1.0 SSE 15 20 8 11 1026.4 1026.9 0.0
21/03:00am 5.7 1.5 3.9 88 0.8 SSE 15 17 8 9 1026.3 1026.8 0.0
21/02:30am 5.4 1.2 3.6 88 0.8 SSE 15 20 8 11 1026.3 1026.8 0.0
21/02:00am 5.7 1.4 3.5 86 0.9 SSE 15 17 8 9 1026.4 1026.9 0.0
21/01:30am 5.5 1.2 3.5 87 0.8 SSE 15 19 8 10 1026.5 1027.0 0.0
21/01:00am 5.7 1.0 3.4 85 1.0 SSE 17 22 9 12 1026.5 1027.0 0.0
21/12:30am 5.8 1.5 3.3 84 1.1 SSE 15 20 8 11 1026.4 1026.9 0.0
21/12:00am 5.7 1.4 3.2 84 1.0 SSE 15 20 8 11 1026.4 1026.9 0.0
 
Date/Time
EST
Temp
°C
App
Temp
°C
Dew
Point
Rel
Hum
%
Delta-T
°C
Wind Press
QNH
hPa
Press
MSL
hPa
Rain
since 9 am
mm
Dir
 
Spd
km/h
Gust
km/h
Spd
kts
Gust
kts
20/11:30pm 6.2 1.6 3.5 83 1.1 SSE 17 20 9 11 1026.5 1027.0 0.0
20/11:00pm 6.1 2.2 3.6 84 1.1 SSE 13 17 7 9 1026.5 1027.0 0.0
20/10:30pm 6.4 2.3 4.4 87 0.9 SSE 15 17 8 9 1026.4 1026.9 0.0
20/10:00pm 5.5 1.6 3.5 87 0.8 SSE 13 17 7 9 1026.6 1027.1 0.0
20/09:30pm 5.8 1.9 3.6 86 0.9 SSE 13 15 7 8 1026.7 1027.2 0.0
20/09:00pm 5.9 2.0 3.4 84 1.1 SSE 13 15 7 8 1026.7 1027.2 0.0
20/08:30pm 6.6 2.7 3.4 80 1.4 SSE 13 17 7 9 1026.5 1027.0 0.0
20/08:00pm 7.5 3.3 3.7 77 1.6 SSE 15 20 8 11 1026.5 1027.0 0.0
20/07:30pm 7.9 3.7 3.8 75 1.8 SSE 15 17 8 9 1026.4 1026.9 0.0
20/07:00pm 8.6 4.4 4.0 73 2.0 S 15 20 8 11 1026.2 1026.6 0.0
20/06:30pm 8.3 4.5 3.9 74 1.9 SSE 13 17 7 9 1026.0 1026.4 0.0
20/06:00pm 9.9 6.2 4.7 70 2.3 S 13 20 7 11 1025.7 1026.1 0.0
20/05:30pm 11.0 7.0 4.9 66 2.8 SSE 15 20 8 11 1025.5 1025.9 0.0
20/05:00pm 12.2 7.5 5.1 62 3.3 SSE 19 26 10 14 1025.2 1025.6 0.0
20/04:30pm 12.8 8.5 5.2 60 3.6 S 17 22 9 12 1025.0 1025.4 0.0
20/04:00pm 13.4 9.3 6.0 61 3.5 S 17 26 9 14 1024.8 1025.2 0.0
20/03:30pm 12.7 8.4 5.1 60 3.6 SSE 17 20 9 11 1024.8 1025.2 0.0
20/03:00pm 13.0 9.4 5.2 59 3.6 SE 13 20 7 11 1024.7 1025.1 0.0
20/02:30pm 13.4 9.8 4.8 56 4.0 SE 13 17 7 9 1024.6 1025.0 0.0
20/02:00pm 13.4 9.8 4.8 56 4.0 SE 13 19 7 10 1024.6 1025.0 0.0
20/01:30pm 14.0 10.9 5.4 56 4.1 ESE 11 20 6 11 1024.7 1025.1 0.0
20/01:00pm 14.1 11.5 6.0 58 3.9 SE 9 22 5 12 1024.9 1025.3 0.0
20/12:30pm 13.1 9.5 5.0 58 3.8 E 13 22 7 12 1025.3 1025.7 0.0
20/12:00pm 12.7 8.6 4.2 56 3.9 E 15 22 8 12 1025.6 1026.0 0.0
20/11:30am 12.3 7.8 4.3 58 3.7 SSE 17 24 9 13 1026.0 1026.4 0.0
20/11:00am 12.1 7.6 4.3 59 3.5 SSE 17 24 9 13 1026.1 1026.5 0.0
20/10:30am 11.2 6.4 4.7 64 3.0 SSE 19 28 10 15 1026.1 1026.5 0.0
20/10:00am 10.6 5.6 4.5 66 2.7 SSE 20 33 11 18 1026.0 1026.4 0.0
20/09:30am 9.4 4.3 4.0 69 2.4 SSE 20 33 11 18 1025.8 1026.2 0.0
20/09:00am 8.4 3.3 3.1 69 2.3 SSE 19 28 10 15 1025.7 1026.1 0.2
20/08:30am 7.4 2.3 3.3 75 1.8 SSE 19 24 10 13 1025.4 1025.8 0.2
20/08:00am 6.1 1.4 2.9 80 1.3 SSE 17 22 9 12 1025.2 1025.6 0.2
20/07:30am 4.2 -0.3 2.4 88 0.7 SSE 15 19 8 10 1025.0 1025.4 0.2
20/07:00am 3.6 -0.2 2.0 89 0.6 SSE 11 15 6 8 1024.6 1025.0 0.2
20/06:30am 3.8 0.1 2.3 90 0.6 S 11 15 6 8 1024.4 1024.8 0.2
20/06:00am 4.3 1.0 2.5 88 0.7 S 9 11 5 6 1024.3 1024.7 0.2
20/05:30am 4.7 1.0 2.6 86 0.9 S 11 15 6 8 1024.2 1024.6 0.2
20/05:00am 4.9 1.7 2.8 86 0.9 S 9 11 5 6 1024.1 1024.5 0.2
20/04:30am 4.9 1.3 2.8 86 0.9 S 11 13 6 7 1023.8 1024.2 0.2
20/04:00am 5.1 1.9 3.0 86 0.9 S 9 13 5 7 1023.7 1024.1 0.2
20/03:30am 5.3 1.7 3.2 86 0.9 SSE 11 15 6 8 1023.6 1024.0 0.2
20/03:00am 5.4 1.5 3.3 86 0.9 SSE 13 17 7 9 1023.6 1024.0 0.2
20/02:30am 5.3 1.4 3.2 86 0.9 S 13 15 7 8 1023.8 1024.2 0.2
20/02:00am 5.5 1.9 3.0 84 1.0 S 11 15 6 8 1024.0 1024.4 0.2
20/01:30am 5.4 1.8 2.9 84 1.0 S 11 13 6 7 1024.0 1024.4 0.2
20/01:00am 5.4 2.2 2.9 84 1.0 S 9 13 5 7 1024.1 1024.5 0.2
20/12:30am 5.7 2.9 2.9 82 1.2 S 7 11 4 6 1024.2 1024.6 0.2
20/12:00am 6.5 3.4 3.5 81 1.3 S 9 13 5 7 1024.1 1024.5 0.2
 
Date/Time
EST
Temp
°C
App
Temp
°C
Dew
Point
Rel
Hum
%
Delta-T
°C
Wind Press
QNH
hPa
Press
MSL
hPa
Rain
since 9 am
mm
Dir
 
Spd
km/h
Gust
km/h
Spd
kts
Gust
kts
19/11:30pm 6.4 3.2 3.2 80 1.4 S 9 13 5 7 1024.3 1024.7 0.2
19/11:00pm 6.5 3.4 3.7 82 1.2 SSW 9 13 5 7 1024.3 1024.7 0.2
19/10:30pm 6.8 3.7 3.8 81 1.3 SSW 9 13 5 7 1024.3 1024.7 0.2
19/10:00pm 6.7 3.7 4.0 83 1.2 SSW 9 11 5 6 1024.3 1024.7 0.2
19/09:30pm 7.0 4.0 4.1 82 1.3 S 9 13 5 7 1024.1 1024.5 0.2
19/09:00pm 7.7 4.7 4.3 79 1.5 S 9 15 5 8 1024.2 1024.6 0.2
19/08:30pm 7.8 4.4 4.2 78 1.6 S 11 17 6 9 1024.0 1024.4 0.2
19/08:00pm 8.4 4.7 4.4 76 1.8 S 13 20 7 11 1023.9 1024.3 0.2
19/07:30pm 8.7 5.0 4.5 75 1.9 S 13 20 7 11 1023.9 1024.3 0.2
19/07:00pm 9.5 4.7 4.7 72 2.2 S 19 28 10 15 1023.5 1023.9 0.2
19/06:30pm 9.8 5.5 5.2 73 2.1 S 17 24 9 13 1023.2 1023.6 0.2
19/06:00pm 10.3 6.0 5.3 71 2.3 S 17 24 9 13 1022.8 1023.2 0.2
19/05:30pm 11.4 7.2 5.9 69 2.6 SSE 17 24 9 13 1022.6 1023.0 0.2
19/05:00pm 11.8 6.8 6.3 69 2.6 SSE 22 32 12 17 1022.3 1022.6 0.2
19/04:30pm 13.2 8.6 6.5 64 3.2 S 20 30 11 16 1022.1 1022.4 0.2
19/04:00pm 13.7 9.3 6.6 62 3.4 SSE 19 26 10 14 1021.9 1022.2 0.2

Other Formats:

Comma delimited format used in spreadsheet applications
http://www.bom.gov.au/fwo/IDV60801/IDV60801.94855.axf

JavaScript Object Notation format (JSON) in row-major order
http://www.bom.gov.au/fwo/IDV60801/IDV60801.94855.json